createdAt,value
2023-01-07T00:07:06.450Z,85.87
2023-01-07T00:17:09.082Z,85.81
2023-01-07T00:27:11.851Z,85.63
2023-01-07T00:37:33.009Z,85.77
2023-01-07T00:47:35.505Z,85.74
2023-01-07T00:57:37.994Z,85.62
2023-01-07T01:07:41.368Z,85.79
2023-01-07T01:17:44.054Z,85.55
2023-01-07T01:27:46.562Z,85.25
2023-01-07T01:37:48.805Z,84.95
2023-01-07T01:48:07.153Z,85.35
2023-01-07T01:58:19.214Z,85.75
2023-01-07T02:08:22.988Z,85.21
2023-01-07T02:19:17.118Z,84.94
2023-01-07T02:29:42.521Z,85.22
2023-01-07T02:40:05.715Z,84.65
2023-01-07T02:50:09.570Z,84.94
2023-01-07T03:00:16.230Z,85.07
2023-01-07T03:10:43.605Z,85.12
2023-01-07T03:20:51.814Z,85.21
2023-01-07T03:30:58.407Z,85.21
2023-01-07T03:41:01.263Z,85.03
2023-01-07T03:51:04.392Z,85.23
2023-01-07T04:01:07.140Z,85.06
2023-01-07T04:11:09.709Z,85.23
2023-01-07T04:21:12.884Z,85.01
2023-01-07T04:31:16.704Z,85.62
2023-01-07T04:41:19.115Z,85.37
2023-01-07T04:51:21.623Z,84.78
2023-01-07T05:01:25.171Z,84.99
2023-01-07T05:11:27.953Z,85.46
2023-01-07T05:21:31.343Z,85.26
2023-01-07T05:31:34.301Z,84.95
2023-01-07T05:41:37.099Z,85.36
2023-01-07T05:51:40.279Z,85.31
2023-01-07T06:01:42.585Z,85.46
2023-01-07T06:11:44.928Z,85.06
2023-01-07T06:21:47.290Z,85.14
2023-01-07T06:31:49.899Z,85.22
2023-01-07T06:41:52.398Z,85.51
2023-01-07T06:51:54.810Z,85.76
2023-01-07T07:01:57.390Z,86.12
2023-01-07T07:11:59.781Z,85.97
2023-01-07T07:22:03.999Z,86.25
2023-01-07T07:32:07.375Z,85.42
2023-01-07T07:42:11.552Z,84.56
2023-01-07T07:52:13.955Z,84.57
2023-01-07T08:02:16.286Z,84.79
2023-01-07T08:12:18.763Z,84.73
2023-01-07T08:22:21.329Z,85.28
2023-01-07T08:32:24.126Z,86.00
2023-01-07T08:42:26.773Z,85.53
2023-01-07T08:52:29.761Z,86.50
2023-01-07T09:02:33.245Z,87.40
2023-01-07T09:12:36.385Z,87.04
2023-01-07T09:22:39.455Z,86.22
2023-01-07T09:32:43.413Z,84.77
2023-01-07T09:43:09.170Z,83.81
2023-01-07T09:53:37.907Z,84.29
2023-01-07T10:03:59.128Z,84.25
2023-01-07T10:14:07.590Z,84.03
2023-01-07T10:24:23.143Z,84.18
2023-01-07T10:34:31.026Z,83.33
2023-01-07T10:44:40.530Z,83.18
2023-01-07T10:55:21.248Z,82.54
2023-01-07T11:05:32.981Z,81.43
2023-01-07T11:15:51.515Z,81.67
2023-01-07T11:25:55.278Z,82.11
2023-01-07T11:35:57.809Z,82.35
2023-01-07T11:46:19.344Z,82.48
2023-01-07T11:56:30.347Z,82.00
2023-01-07T12:06:37.980Z,82.00
2023-01-07T12:16:41.252Z,81.68
2023-01-07T12:26:59.644Z,81.15
2023-01-07T12:37:10.464Z,80.16
2023-01-07T12:47:50.180Z,80.92
2023-01-07T12:58:02.929Z,80.82
2023-01-07T13:08:33.336Z,80.70
2023-01-07T13:18:36.006Z,81.04
2023-01-07T13:29:02.887Z,81.49
2023-01-07T13:39:34.815Z,81.18
2023-01-07T13:49:37.778Z,81.36
2023-01-07T13:59:54.215Z,81.86
2023-01-07T14:09:58.004Z,81.71
2023-01-07T14:20:30.316Z,81.91
2023-01-07T14:30:42.804Z,81.94
2023-01-07T14:40:45.212Z,81.38
2023-01-07T14:51:41.876Z,81.69
2023-01-07T15:01:54.519Z,82.78
2023-01-07T15:12:22.227Z,83.65
2023-01-07T15:22:37.515Z,84.36
2023-01-07T15:32:53.083Z,84.84
2023-01-07T15:42:58.674Z,84.63
2023-01-07T15:53:23.266Z,84.06
2023-01-07T16:03:26.947Z,84.06
2023-01-07T16:13:30.035Z,83.55
2023-01-07T16:23:34.660Z,83.06
2023-01-07T16:33:40.030Z,83.50
2023-01-07T16:43:44.603Z,84.17
2023-01-07T16:53:47.056Z,84.23
2023-01-07T17:03:55.604Z,84.62
2023-01-07T17:14:06.060Z,84.81
2023-01-07T17:24:31.330Z,84.75
2023-01-07T17:34:33.990Z,85.65
2023-01-07T17:44:36.509Z,85.44
2023-01-07T17:54:40.913Z,85.96
2023-01-07T18:04:43.473Z,85.62
2023-01-07T18:14:45.931Z,85.69
2023-01-07T18:24:48.901Z,86.06
2023-01-07T18:34:51.407Z,85.93
2023-01-07T18:44:54.024Z,86.28
2023-01-07T18:54:57.441Z,85.57
2023-01-07T19:05:00.005Z,86.06
2023-01-07T19:15:02.617Z,86.48
2023-01-07T19:25:05.891Z,86.61
2023-01-07T19:35:08.838Z,87.05
2023-01-07T19:45:11.467Z,88.13
2023-01-07T19:55:15.419Z,88.48
2023-01-07T20:05:18.228Z,88.91
2023-01-07T20:15:20.684Z,88.68
2023-01-07T20:25:23.163Z,88.48
2023-01-07T20:35:25.849Z,88.06
2023-01-07T20:45:28.476Z,87.67
2023-01-07T20:55:31.079Z,87.74
2023-01-07T21:05:34.362Z,87.23
2023-01-07T21:15:38.739Z,86.91
2023-01-07T21:25:45.747Z,86.69
2023-01-07T21:35:48.504Z,86.83
2023-01-07T21:45:51.401Z,87.10
2023-01-07T21:55:55.646Z,87.53
2023-01-07T22:06:00.931Z,86.46
2023-01-07T22:16:05.613Z,85.85
2023-01-07T22:26:09.089Z,86.03
2023-01-07T22:36:21.235Z,86.15
2023-01-07T22:46:27.695Z,85.81
2023-01-07T22:56:30.667Z,85.81
2023-01-07T23:06:33.459Z,85.60
2023-01-07T23:16:36.756Z,85.57
2023-01-07T23:26:40.079Z,86.22
2023-01-07T23:36:42.617Z,86.28
2023-01-07T23:46:45.523Z,87.17
2023-01-07T23:56:48.387Z,86.69
